Terminal Aerodrome Forecast
Issued by NWS Billings, MT

Home | Current Version | Previous Version | Text Only | Print | Product List | Glossary On
Versions: 1 2 3 4 5 6 7 8 9 10 11 12 13
000
FTUS45 KBYZ 300538
TAFSHR
TAF
KSHR 300538Z 3006/0106 23010KT P6SM SCT110
     FM300700 25010KT P6SM VCSH BKN110
     FM300900 30006KT P6SM SCT110
     FM301800 35007KT P6SM FEW150=

USA.gov is the U.S. government's official web portal to all federal, state and local government web resources and services.